sensor_id;sensor_type;location;lat;lon;timestamp;P1;durP1;ratioP1;P2;durP2;ratioP2
61938;SDS011;47897;50.322;18.892;2023-04-25T00:00:51;23.80;;;14.20;;
61938;SDS011;47897;50.322;18.892;2023-04-25T00:03:22;24.00;;;13.40;;
61938;SDS011;47897;50.322;18.892;2023-04-25T00:05:51;22.90;;;12.30;;
61938;SDS011;47897;50.322;18.892;2023-04-25T00:08:18;21.40;;;12.80;;
61938;SDS011;47897;50.322;18.892;2023-04-25T00:10:45;22.00;;;11.80;;
61938;SDS011;47897;50.322;18.892;2023-04-25T00:13:11;23.10;;;12.70;;
61938;SDS011;47897;50.322;18.892;2023-04-25T00:15:38;27.20;;;14.20;;
61938;SDS011;47897;50.322;18.892;2023-04-25T00:18:05;31.00;;;17.40;;
61938;SDS011;47897;50.322;18.892;2023-04-25T00:20:32;29.50;;;17.50;;
61938;SDS011;47897;50.322;18.892;2023-04-25T00:22:59;31.90;;;18.50;;
61938;SDS011;47897;50.322;18.892;2023-04-25T00:25:26;39.00;;;19.70;;
61938;SDS011;47897;50.322;18.892;2023-04-25T00:27:53;37.10;;;20.00;;
61938;SDS011;47897;50.322;18.892;2023-04-25T00:30:19;29.70;;;14.30;;
61938;SDS011;47897;50.322;18.892;2023-04-25T00:32:46;30.50;;;18.00;;
61938;SDS011;47897;50.322;18.892;2023-04-25T00:35:13;32.80;;;18.40;;
61938;SDS011;47897;50.322;18.892;2023-04-25T00:37:39;35.60;;;19.80;;
61938;SDS011;47897;50.322;18.892;2023-04-25T00:40:06;33.50;;;18.90;;
61938;SDS011;47897;50.322;18.892;2023-04-25T00:42:34;24.20;;;11.70;;
61938;SDS011;47897;50.322;18.892;2023-04-25T00:45:02;34.60;;;18.80;;
61938;SDS011;47897;50.322;18.892;2023-04-25T00:47:30;35.80;;;19.80;;
61938;SDS011;47897;50.322;18.892;2023-04-25T00:49:58;35.90;;;20.00;;
61938;SDS011;47897;50.322;18.892;2023-04-25T00:52:24;42.90;;;19.30;;
61938;SDS011;47897;50.322;18.892;2023-04-25T00:54:51;37.70;;;18.80;;
61938;SDS011;47897;50.322;18.892;2023-04-25T00:57:18;36.20;;;18.60;;
61938;SDS011;47897;50.322;18.892;2023-04-25T00:59:45;40.80;;;20.00;;
61938;SDS011;47897;50.322;18.892;2023-04-25T01:02:12;44.10;;;20.60;;
61938;SDS011;47897;50.322;18.892;2023-04-25T01:04:39;45.40;;;19.80;;
61938;SDS011;47897;50.322;18.892;2023-04-25T01:07:06;44.90;;;20.40;;
61938;SDS011;47897;50.322;18.892;2023-04-25T01:09:33;43.70;;;19.50;;
61938;SDS011;47897;50.322;18.892;2023-04-25T01:12:00;34.30;;;16.90;;
61938;SDS011;47897;50.322;18.892;2023-04-25T01:14:27;22.60;;;9.10;;
61938;SDS011;47897;50.322;18.892;2023-04-25T01:16:54;38.30;;;17.80;;
61938;SDS011;47897;50.322;18.892;2023-04-25T01:19:20;30.40;;;13.10;;
61938;SDS011;47897;50.322;18.892;2023-04-25T01:21:47;34.20;;;17.50;;
61938;SDS011;47897;50.322;18.892;2023-04-25T01:24:14;38.80;;;16.70;;
61938;SDS011;47897;50.322;18.892;2023-04-25T01:26:41;28.10;;;15.60;;
61938;SDS011;47897;50.322;18.892;2023-04-25T01:29:11;23.80;;;12.50;;
61938;SDS011;47897;50.322;18.892;2023-04-25T01:31:38;28.60;;;14.00;;
61938;SDS011;47897;50.322;18.892;2023-04-25T01:34:04;19.80;;;11.00;;
61938;SDS011;47897;50.322;18.892;2023-04-25T01:36:31;25.50;;;12.30;;
61938;SDS011;47897;50.322;18.892;2023-04-25T01:38:58;26.20;;;13.30;;
61938;SDS011;47897;50.322;18.892;2023-04-25T01:41:24;28.90;;;11.90;;
61938;SDS011;47897;50.322;18.892;2023-04-25T01:43:52;20.90;;;12.40;;
61938;SDS011;47897;50.322;18.892;2023-04-25T01:46:18;21.00;;;11.90;;
61938;SDS011;47897;50.322;18.892;2023-04-25T01:48:45;23.30;;;11.50;;
61938;SDS011;47897;50.322;18.892;2023-04-25T01:51:12;22.70;;;12.10;;
61938;SDS011;47897;50.322;18.892;2023-04-25T01:53:39;16.50;;;9.60;;
61938;SDS011;47897;50.322;18.892;2023-04-25T01:56:06;14.60;;;7.20;;
61938;SDS011;47897;50.322;18.892;2023-04-25T01:58:32;20.30;;;12.20;;
61938;SDS011;47897;50.322;18.892;2023-04-25T02:00:59;17.80;;;10.90;;
61938;SDS011;47897;50.322;18.892;2023-04-25T02:03:26;21.00;;;12.80;;
61938;SDS011;47897;50.322;18.892;2023-04-25T02:05:52;20.90;;;12.00;;
61938;SDS011;47897;50.322;18.892;2023-04-25T02:08:19;16.60;;;10.40;;
61938;SDS011;47897;50.322;18.892;2023-04-25T02:10:46;21.50;;;12.80;;
61938;SDS011;47897;50.322;18.892;2023-04-25T02:13:12;19.30;;;10.50;;
61938;SDS011;47897;50.322;18.892;2023-04-25T02:15:39;15.90;;;10.40;;
61938;SDS011;47897;50.322;18.892;2023-04-25T02:18:06;15.90;;;10.00;;
61938;SDS011;47897;50.322;18.892;2023-04-25T02:20:33;21.10;;;10.60;;
61938;SDS011;47897;50.322;18.892;2023-04-25T02:22:59;19.90;;;9.80;;
61938;SDS011;47897;50.322;18.892;2023-04-25T02:25:26;12.80;;;8.80;;
61938;SDS011;47897;50.322;18.892;2023-04-25T02:27:53;13.60;;;8.90;;
61938;SDS011;47897;50.322;18.892;2023-04-25T02:30:20;14.90;;;9.30;;
61938;SDS011;47897;50.322;18.892;2023-04-25T02:32:46;11.20;;;6.70;;
61938;SDS011;47897;50.322;18.892;2023-04-25T02:35:13;11.80;;;8.90;;
61938;SDS011;47897;50.322;18.892;2023-04-25T02:37:40;12.80;;;7.60;;
61938;SDS011;47897;50.322;18.892;2023-04-25T02:40:07;14.60;;;8.30;;
61938;SDS011;47897;50.322;18.892;2023-04-25T02:42:34;14.20;;;9.60;;
61938;SDS011;47897;50.322;18.892;2023-04-25T02:45:01;11.00;;;6.60;;
61938;SDS011;47897;50.322;18.892;2023-04-25T02:47:28;10.50;;;7.20;;
61938;SDS011;47897;50.322;18.892;2023-04-25T02:49:55;13.30;;;8.10;;
61938;SDS011;47897;50.322;18.892;2023-04-25T02:52:22;10.50;;;6.90;;
61938;SDS011;47897;50.322;18.892;2023-04-25T02:54:48;13.40;;;8.80;;
61938;SDS011;47897;50.322;18.892;2023-04-25T02:57:15;12.00;;;8.00;;
61938;SDS011;47897;50.322;18.892;2023-04-25T02:59:42;11.90;;;8.30;;
61938;SDS011;47897;50.322;18.892;2023-04-25T03:02:09;10.30;;;8.20;;
61938;SDS011;47897;50.322;18.892;2023-04-25T03:04:35;8.40;;;6.20;;
61938;SDS011;47897;50.322;18.892;2023-04-25T03:07:02;9.70;;;7.00;;
61938;SDS011;47897;50.322;18.892;2023-04-25T03:09:29;10.00;;;6.80;;
61938;SDS011;47897;50.322;18.892;2023-04-25T03:11:55;10.40;;;7.60;;
61938;SDS011;47897;50.322;18.892;2023-04-25T03:14:22;8.00;;;5.80;;
61938;SDS011;47897;50.322;18.892;2023-04-25T03:16:49;9.30;;;7.20;;
61938;SDS011;47897;50.322;18.892;2023-04-25T03:19:15;8.00;;;5.50;;
61938;SDS011;47897;50.322;18.892;2023-04-25T03:21:43;5.50;;;4.20;;
61938;SDS011;47897;50.322;18.892;2023-04-25T03:24:10;11.40;;;7.30;;
61938;SDS011;47897;50.322;18.892;2023-04-25T03:26:37;7.60;;;6.20;;
61938;SDS011;47897;50.322;18.892;2023-04-25T03:29:04;8.40;;;5.40;;
61938;SDS011;47897;50.322;18.892;2023-04-25T03:31:30;8.20;;;6.10;;
61938;SDS011;47897;50.322;18.892;2023-04-25T03:33:57;8.90;;;5.80;;
61938;SDS011;47897;50.322;18.892;2023-04-25T03:36:24;10.80;;;6.80;;
61938;SDS011;47897;50.322;18.892;2023-04-25T03:38:50;7.10;;;4.10;;
61938;SDS011;47897;50.322;18.892;2023-04-25T03:41:17;6.20;;;4.70;;
61938;SDS011;47897;50.322;18.892;2023-04-25T03:43:44;6.00;;;4.30;;
61938;SDS011;47897;50.322;18.892;2023-04-25T03:46:11;7.00;;;5.30;;
61938;SDS011;47897;50.322;18.892;2023-04-25T03:48:37;3.60;;;2.60;;
61938;SDS011;47897;50.322;18.892;2023-04-25T03:51:04;9.90;;;7.00;;
61938;SDS011;47897;50.322;18.892;2023-04-25T03:53:31;7.50;;;5.10;;
61938;SDS011;47897;50.322;18.892;2023-04-25T03:55:57;7.70;;;5.10;;
61938;SDS011;47897;50.322;18.892;2023-04-25T03:58:24;8.20;;;5.10;;
61938;SDS011;47897;50.322;18.892;2023-04-25T04:00:51;5.40;;;3.80;;
61938;SDS011;47897;50.322;18.892;2023-04-25T04:03:18;4.00;;;3.00;;
61938;SDS011;47897;50.322;18.892;2023-04-25T04:05:45;7.20;;;4.90;;
61938;SDS011;47897;50.322;18.892;2023-04-25T04:08:12;5.30;;;3.20;;
61938;SDS011;47897;50.322;18.892;2023-04-25T04:10:39;6.70;;;5.20;;
61938;SDS011;47897;50.322;18.892;2023-04-25T04:13:06;7.00;;;4.60;;
61938;SDS011;47897;50.322;18.892;2023-04-25T04:15:33;8.10;;;5.40;;
61938;SDS011;47897;50.322;18.892;2023-04-25T04:18:00;7.70;;;4.90;;
61938;SDS011;47897;50.322;18.892;2023-04-25T04:20:29;5.60;;;4.90;;
61938;SDS011;47897;50.322;18.892;2023-04-25T04:22:59;6.60;;;4.40;;
61938;SDS011;47897;50.322;18.892;2023-04-25T04:25:26;6.60;;;5.20;;
61938;SDS011;47897;50.322;18.892;2023-04-25T04:27:52;4.70;;;3.20;;
61938;SDS011;47897;50.322;18.892;2023-04-25T04:30:24;8.00;;;4.80;;
61938;SDS011;47897;50.322;18.892;2023-04-25T04:32:51;6.50;;;4.90;;
61938;SDS011;47897;50.322;18.892;2023-04-25T04:35:18;7.40;;;5.40;;
61938;SDS011;47897;50.322;18.892;2023-04-25T04:37:45;8.10;;;6.00;;
61938;SDS011;47897;50.322;18.892;2023-04-25T04:40:12;6.80;;;5.70;;
61938;SDS011;47897;50.322;18.892;2023-04-25T04:42:38;9.00;;;5.50;;
61938;SDS011;47897;50.322;18.892;2023-04-25T04:45:05;9.10;;;5.90;;
61938;SDS011;47897;50.322;18.892;2023-04-25T04:47:32;8.40;;;5.60;;
61938;SDS011;47897;50.322;18.892;2023-04-25T04:50:00;7.70;;;6.70;;
61938;SDS011;47897;50.322;18.892;2023-04-25T04:52:26;14.80;;;8.40;;
61938;SDS011;47897;50.322;18.892;2023-04-25T04:54:53;13.30;;;9.60;;
61938;SDS011;47897;50.322;18.892;2023-04-25T04:57:20;13.60;;;9.10;;
61938;SDS011;47897;50.322;18.892;2023-04-25T04:59:46;18.70;;;10.30;;
61938;SDS011;47897;50.322;18.892;2023-04-25T05:02:13;8.20;;;5.50;;
61938;SDS011;47897;50.322;18.892;2023-04-25T05:04:40;7.10;;;3.90;;
61938;SDS011;47897;50.322;18.892;2023-04-25T05:07:06;9.20;;;6.70;;
61938;SDS011;47897;50.322;18.892;2023-04-25T05:09:33;5.50;;;4.30;;
61938;SDS011;47897;50.322;18.892;2023-04-25T05:12:00;7.30;;;6.20;;
61938;SDS011;47897;50.322;18.892;2023-04-25T05:14:27;10.10;;;7.20;;
61938;SDS011;47897;50.322;18.892;2023-04-25T05:16:54;11.00;;;7.50;;
61938;SDS011;47897;50.322;18.892;2023-04-25T05:19:21;10.20;;;7.10;;
61938;SDS011;47897;50.322;18.892;2023-04-25T05:21:47;8.30;;;6.10;;
61938;SDS011;47897;50.322;18.892;2023-04-25T05:24:14;7.10;;;4.80;;
61938;SDS011;47897;50.322;18.892;2023-04-25T05:26:41;9.50;;;6.90;;
61938;SDS011;47897;50.322;18.892;2023-04-25T05:29:07;7.40;;;4.80;;
61938;SDS011;47897;50.322;18.892;2023-04-25T05:31:35;6.80;;;4.10;;
61938;SDS011;47897;50.322;18.892;2023-04-25T05:34:02;4.70;;;3.00;;
61938;SDS011;47897;50.322;18.892;2023-04-25T05:36:29;7.80;;;5.90;;
61938;SDS011;47897;50.322;18.892;2023-04-25T05:38:57;7.50;;;4.60;;
61938;SDS011;47897;50.322;18.892;2023-04-25T05:41:24;7.80;;;5.00;;
61938;SDS011;47897;50.322;18.892;2023-04-25T05:43:50;8.50;;;5.00;;
61938;SDS011;47897;50.322;18.892;2023-04-25T05:46:17;6.80;;;4.80;;
61938;SDS011;47897;50.322;18.892;2023-04-25T05:48:44;7.30;;;5.50;;
61938;SDS011;47897;50.322;18.892;2023-04-25T05:51:10;7.90;;;5.30;;
61938;SDS011;47897;50.322;18.892;2023-04-25T05:53:37;8.70;;;4.90;;
61938;SDS011;47897;50.322;18.892;2023-04-25T05:56:04;7.20;;;5.10;;
61938;SDS011;47897;50.322;18.892;2023-04-25T05:58:31;7.20;;;4.90;;
61938;SDS011;47897;50.322;18.892;2023-04-25T06:00:57;5.90;;;3.90;;
61938;SDS011;47897;50.322;18.892;2023-04-25T06:03:24;8.30;;;5.70;;
61938;SDS011;47897;50.322;18.892;2023-04-25T06:05:51;9.40;;;6.00;;
61938;SDS011;47897;50.322;18.892;2023-04-25T06:08:18;10.30;;;5.50;;
61938;SDS011;47897;50.322;18.892;2023-04-25T06:10:45;10.80;;;5.80;;
61938;SDS011;47897;50.322;18.892;2023-04-25T06:13:12;6.40;;;4.00;;
61938;SDS011;47897;50.322;18.892;2023-04-25T06:15:38;7.00;;;4.80;;
61938;SDS011;47897;50.322;18.892;2023-04-25T06:18:05;7.80;;;4.80;;
61938;SDS011;47897;50.322;18.892;2023-04-25T06:20:32;9.50;;;5.40;;
61938;SDS011;47897;50.322;18.892;2023-04-25T06:22:58;8.00;;;4.70;;
61938;SDS011;47897;50.322;18.892;2023-04-25T06:25:25;8.80;;;6.10;;
61938;SDS011;47897;50.322;18.892;2023-04-25T06:27:52;10.50;;;5.50;;
61938;SDS011;47897;50.322;18.892;2023-04-25T06:30:18;11.20;;;6.10;;
61938;SDS011;47897;50.322;18.892;2023-04-25T06:32:48;9.60;;;6.30;;
61938;SDS011;47897;50.322;18.892;2023-04-25T06:35:15;9.10;;;5.90;;
61938;SDS011;47897;50.322;18.892;2023-04-25T06:37:42;11.20;;;6.40;;
61938;SDS011;47897;50.322;18.892;2023-04-25T06:40:09;8.90;;;6.70;;
61938;SDS011;47897;50.322;18.892;2023-04-25T06:42:35;8.40;;;5.70;;
61938;SDS011;47897;50.322;18.892;2023-04-25T06:45:02;10.70;;;6.40;;
61938;SDS011;47897;50.322;18.892;2023-04-25T06:47:29;7.80;;;5.30;;
61938;SDS011;47897;50.322;18.892;2023-04-25T06:49:56;6.80;;;3.70;;
61938;SDS011;47897;50.322;18.892;2023-04-25T06:52:22;9.60;;;6.00;;
61938;SDS011;47897;50.322;18.892;2023-04-25T06:54:49;8.10;;;5.00;;
61938;SDS011;47897;50.322;18.892;2023-04-25T06:57:16;15.20;;;7.90;;
61938;SDS011;47897;50.322;18.892;2023-04-25T06:59:43;11.80;;;6.10;;
61938;SDS011;47897;50.322;18.892;2023-04-25T07:02:09;10.40;;;6.30;;
61938;SDS011;47897;50.322;18.892;2023-04-25T07:04:36;9.00;;;4.50;;
61938;SDS011;47897;50.322;18.892;2023-04-25T07:07:03;9.50;;;6.20;;
61938;SDS011;47897;50.322;18.892;2023-04-25T07:09:30;9.10;;;6.10;;
61938;SDS011;47897;50.322;18.892;2023-04-25T07:12:00;10.00;;;5.80;;
61938;SDS011;47897;50.322;18.892;2023-04-25T07:14:27;7.80;;;4.90;;
61938;SDS011;47897;50.322;18.892;2023-04-25T07:16:54;10.10;;;6.80;;
61938;SDS011;47897;50.322;18.892;2023-04-25T07:19:23;10.00;;;5.60;;
61938;SDS011;47897;50.322;18.892;2023-04-25T07:21:52;8.60;;;5.10;;
61938;SDS011;47897;50.322;18.892;2023-04-25T07:24:19;8.50;;;5.40;;
61938;SDS011;47897;50.322;18.892;2023-04-25T07:26:46;8.80;;;5.60;;
61938;SDS011;47897;50.322;18.892;2023-04-25T07:29:12;9.40;;;5.30;;
61938;SDS011;47897;50.322;18.892;2023-04-25T07:31:39;7.00;;;4.60;;
61938;SDS011;47897;50.322;18.892;2023-04-25T07:34:06;7.90;;;5.50;;
61938;SDS011;47897;50.322;18.892;2023-04-25T07:36:32;8.40;;;6.20;;
61938;SDS011;47897;50.322;18.892;2023-04-25T07:38:59;10.50;;;6.40;;
61938;SDS011;47897;50.322;18.892;2023-04-25T07:41:26;11.20;;;6.80;;
61938;SDS011;47897;50.322;18.892;2023-04-25T07:43:52;8.10;;;5.70;;
61938;SDS011;47897;50.322;18.892;2023-04-25T07:46:19;9.60;;;6.20;;
61938;SDS011;47897;50.322;18.892;2023-04-25T07:48:45;8.20;;;5.50;;
61938;SDS011;47897;50.322;18.892;2023-04-25T07:51:12;15.00;;;7.40;;
61938;SDS011;47897;50.322;18.892;2023-04-25T07:53:37;11.70;;;6.60;;
61938;SDS011;47897;50.322;18.892;2023-04-25T07:56:04;10.80;;;6.40;;
61938;SDS011;47897;50.322;18.892;2023-04-25T07:58:31;10.80;;;6.60;;
61938;SDS011;47897;50.322;18.892;2023-04-25T08:00:58;10.00;;;6.30;;
61938;SDS011;47897;50.322;18.892;2023-04-25T08:03:24;9.30;;;5.90;;
61938;SDS011;47897;50.322;18.892;2023-04-25T08:05:51;8.80;;;5.60;;
61938;SDS011;47897;50.322;18.892;2023-04-25T08:08:18;10.90;;;7.20;;
61938;SDS011;47897;50.322;18.892;2023-04-25T08:10:44;10.60;;;7.00;;
61938;SDS011;47897;50.322;18.892;2023-04-25T08:13:11;11.90;;;6.30;;
61938;SDS011;47897;50.322;18.892;2023-04-25T08:15:38;10.60;;;6.40;;
61938;SDS011;47897;50.322;18.892;2023-04-25T08:18:04;9.50;;;5.80;;
61938;SDS011;47897;50.322;18.892;2023-04-25T08:20:31;8.80;;;4.90;;
61938;SDS011;47897;50.322;18.892;2023-04-25T08:22:58;8.30;;;5.50;;
61938;SDS011;47897;50.322;18.892;2023-04-25T08:25:24;12.20;;;6.00;;
61938;SDS011;47897;50.322;18.892;2023-04-25T08:27:51;9.10;;;5.50;;
61938;SDS011;47897;50.322;18.892;2023-04-25T08:30:18;12.00;;;7.30;;
61938;SDS011;47897;50.322;18.892;2023-04-25T08:32:45;12.00;;;8.10;;
61938;SDS011;47897;50.322;18.892;2023-04-25T08:35:12;9.50;;;5.30;;
61938;SDS011;47897;50.322;18.892;2023-04-25T08:37:38;8.20;;;5.60;;
61938;SDS011;47897;50.322;18.892;2023-04-25T08:40:05;7.60;;;5.30;;
61938;SDS011;47897;50.322;18.892;2023-04-25T08:42:33;8.00;;;5.00;;
61938;SDS011;47897;50.322;18.892;2023-04-25T08:45:03;11.10;;;7.40;;
61938;SDS011;47897;50.322;18.892;2023-04-25T08:47:30;6.70;;;5.10;;
61938;SDS011;47897;50.322;18.892;2023-04-25T08:49:59;10.10;;;7.30;;
61938;SDS011;47897;50.322;18.892;2023-04-25T08:52:27;13.60;;;8.80;;
61938;SDS011;47897;50.322;18.892;2023-04-25T08:54:54;12.40;;;7.60;;
61938;SDS011;47897;50.322;18.892;2023-04-25T08:57:21;11.70;;;7.20;;
61938;SDS011;47897;50.322;18.892;2023-04-25T08:59:49;13.20;;;8.30;;
61938;SDS011;47897;50.322;18.892;2023-04-25T09:02:15;11.00;;;7.20;;
61938;SDS011;47897;50.322;18.892;2023-04-25T09:04:44;10.10;;;5.70;;
61938;SDS011;47897;50.322;18.892;2023-04-25T09:07:11;7.70;;;6.20;;
61938;SDS011;47897;50.322;18.892;2023-04-25T09:09:38;13.50;;;10.00;;
61938;SDS011;47897;50.322;18.892;2023-04-25T09:12:05;15.20;;;10.40;;
61938;SDS011;47897;50.322;18.892;2023-04-25T09:14:32;9.60;;;7.30;;
61938;SDS011;47897;50.322;18.892;2023-04-25T09:17:00;9.60;;;6.80;;
61938;SDS011;47897;50.322;18.892;2023-04-25T09:19:28;12.00;;;7.60;;
61938;SDS011;47897;50.322;18.892;2023-04-25T09:21:55;12.00;;;8.10;;
61938;SDS011;47897;50.322;18.892;2023-04-25T09:24:31;10.40;;;5.70;;
61938;SDS011;47897;50.322;18.892;2023-04-25T09:26:58;8.90;;;5.50;;
61938;SDS011;47897;50.322;18.892;2023-04-25T09:29:29;6.50;;;4.90;;
61938;SDS011;47897;50.322;18.892;2023-04-25T09:34:42;4.20;;;3.10;;
61938;SDS011;47897;50.322;18.892;2023-04-25T09:37:10;8.20;;;4.50;;
61938;SDS011;47897;50.322;18.892;2023-04-25T09:39:39;9.30;;;5.00;;
61938;SDS011;47897;50.322;18.892;2023-04-25T09:42:06;7.40;;;5.40;;
61938;SDS011;47897;50.322;18.892;2023-04-25T09:44:32;5.60;;;4.10;;
61938;SDS011;47897;50.322;18.892;2023-04-25T09:46:59;6.20;;;4.00;;
61938;SDS011;47897;50.322;18.892;2023-04-25T09:49:26;5.30;;;3.70;;
61938;SDS011;47897;50.322;18.892;2023-04-25T09:51:57;7.30;;;4.60;;
61938;SDS011;47897;50.322;18.892;2023-04-25T09:54:24;6.60;;;4.40;;
61938;SDS011;47897;50.322;18.892;2023-04-25T09:56:52;15.10;;;3.30;;
61938;SDS011;47897;50.322;18.892;2023-04-25T09:59:22;6.60;;;4.00;;
61938;SDS011;47897;50.322;18.892;2023-04-25T10:01:51;5.60;;;3.50;;
61938;SDS011;47897;50.322;18.892;2023-04-25T10:04:19;5.90;;;3.20;;
61938;SDS011;47897;50.322;18.892;2023-04-25T10:06:48;4.60;;;3.80;;
61938;SDS011;47897;50.322;18.892;2023-04-25T10:09:15;6.10;;;4.20;;
61938;SDS011;47897;50.322;18.892;2023-04-25T10:11:44;6.00;;;3.80;;
61938;SDS011;47897;50.322;18.892;2023-04-25T10:14:13;6.30;;;3.90;;
61938;SDS011;47897;50.322;18.892;2023-04-25T10:16:40;6.60;;;4.30;;
61938;SDS011;47897;50.322;18.892;2023-04-25T10:19:07;6.70;;;4.70;;
61938;SDS011;47897;50.322;18.892;2023-04-25T10:21:34;5.90;;;3.60;;
61938;SDS011;47897;50.322;18.892;2023-04-25T10:24:02;5.90;;;3.50;;
61938;SDS011;47897;50.322;18.892;2023-04-25T10:26:29;6.40;;;3.10;;
61938;SDS011;47897;50.322;18.892;2023-04-25T10:28:57;7.50;;;4.20;;
61938;SDS011;47897;50.322;18.892;2023-04-25T10:31:27;5.80;;;3.70;;
61938;SDS011;47897;50.322;18.892;2023-04-25T10:33:55;8.30;;;4.50;;
61938;SDS011;47897;50.322;18.892;2023-04-25T10:36:22;7.90;;;4.60;;
61938;SDS011;47897;50.322;18.892;2023-04-25T10:38:49;6.00;;;3.80;;
61938;SDS011;47897;50.322;18.892;2023-04-25T10:41:20;7.10;;;3.50;;
61938;SDS011;47897;50.322;18.892;2023-04-25T10:43:47;6.50;;;3.60;;
61938;SDS011;47897;50.322;18.892;2023-04-25T10:48:45;7.00;;;4.20;;
61938;SDS011;47897;50.322;18.892;2023-04-25T10:51:26;6.50;;;4.50;;
61938;SDS011;47897;50.322;18.892;2023-04-25T10:54:00;7.20;;;4.60;;
61938;SDS011;47897;50.322;18.892;2023-04-25T10:56:28;7.50;;;4.10;;
61938;SDS011;47897;50.322;18.892;2023-04-25T10:59:13;6.30;;;3.40;;
61938;SDS011;47897;50.322;18.892;2023-04-25T11:01:41;7.70;;;3.80;;
61938;SDS011;47897;50.322;18.892;2023-04-25T11:09:33;5.60;;;3.20;;
61938;SDS011;47897;50.322;18.892;2023-04-25T11:12:00;5.90;;;4.20;;
61938;SDS011;47897;50.322;18.892;2023-04-25T11:14:27;6.40;;;3.10;;
61938;SDS011;47897;50.322;18.892;2023-04-25T11:16:54;7.40;;;4.00;;
61938;SDS011;47897;50.322;18.892;2023-04-25T11:19:24;4.10;;;3.20;;
61938;SDS011;47897;50.322;18.892;2023-04-25T11:21:58;6.70;;;5.20;;
61938;SDS011;47897;50.322;18.892;2023-04-25T11:24:26;8.90;;;5.50;;
61938;SDS011;47897;50.322;18.892;2023-04-25T11:26:53;7.60;;;4.70;;
61938;SDS011;47897;50.322;18.892;2023-04-25T11:29:23;8.50;;;5.10;;
61938;SDS011;47897;50.322;18.892;2023-04-25T11:31:50;5.70;;;3.80;;
61938;SDS011;47897;50.322;18.892;2023-04-25T11:34:17;9.10;;;5.30;;
61938;SDS011;47897;50.322;18.892;2023-04-25T11:36:45;6.00;;;4.50;;
61938;SDS011;47897;50.322;18.892;2023-04-25T11:39:12;8.90;;;5.20;;
61938;SDS011;47897;50.322;18.892;2023-04-25T11:41:38;5.20;;;3.20;;
61938;SDS011;47897;50.322;18.892;2023-04-25T11:44:05;7.30;;;4.40;;
61938;SDS011;47897;50.322;18.892;2023-04-25T11:46:35;8.30;;;4.00;;
61938;SDS011;47897;50.322;18.892;2023-04-25T11:49:02;8.50;;;6.00;;
61938;SDS011;47897;50.322;18.892;2023-04-25T11:51:29;9.90;;;6.40;;
61938;SDS011;47897;50.322;18.892;2023-04-25T11:53:56;13.70;;;6.50;;
61938;SDS011;47897;50.322;18.892;2023-04-25T11:56:23;13.30;;;6.90;;
61938;SDS011;47897;50.322;18.892;2023-04-25T12:01:26;10.40;;;6.30;;
61938;SDS011;47897;50.322;18.892;2023-04-25T12:03:53;7.60;;;4.60;;
61938;SDS011;47897;50.322;18.892;2023-04-25T12:06:20;10.30;;;6.40;;
61938;SDS011;47897;50.322;18.892;2023-04-25T12:09:02;12.20;;;7.60;;
61938;SDS011;47897;50.322;18.892;2023-04-25T12:11:30;11.10;;;6.70;;
61938;SDS011;47897;50.322;18.892;2023-04-25T12:14:04;9.40;;;6.90;;
61938;SDS011;47897;50.322;18.892;2023-04-25T12:16:43;9.10;;;5.80;;
61938;SDS011;47897;50.322;18.892;2023-04-25T12:19:14;10.70;;;7.50;;
61938;SDS011;47897;50.322;18.892;2023-04-25T12:21:42;10.10;;;7.10;;
61938;SDS011;47897;50.322;18.892;2023-04-25T12:24:09;7.20;;;4.00;;
61938;SDS011;47897;50.322;18.892;2023-04-25T12:26:46;9.60;;;7.10;;
61938;SDS011;47897;50.322;18.892;2023-04-25T12:29:17;12.50;;;7.70;;
61938;SDS011;47897;50.322;18.892;2023-04-25T12:31:43;11.60;;;7.80;;
61938;SDS011;47897;50.322;18.892;2023-04-25T12:34:11;11.50;;;6.50;;
61938;SDS011;47897;50.322;18.892;2023-04-25T12:36:38;10.70;;;8.50;;
61938;SDS011;47897;50.322;18.892;2023-04-25T12:39:05;8.20;;;6.00;;
61938;SDS011;47897;50.322;18.892;2023-04-25T12:41:33;10.30;;;6.50;;
61938;SDS011;47897;50.322;18.892;2023-04-25T12:44:00;9.00;;;5.50;;
61938;SDS011;47897;50.322;18.892;2023-04-25T12:46:26;13.20;;;7.40;;
61938;SDS011;47897;50.322;18.892;2023-04-25T12:48:53;10.40;;;6.80;;
61938;SDS011;47897;50.322;18.892;2023-04-25T12:51:20;9.60;;;6.80;;
61938;SDS011;47897;50.322;18.892;2023-04-25T12:53:47;11.00;;;7.80;;
61938;SDS011;47897;50.322;18.892;2023-04-25T12:56:13;12.30;;;8.20;;
61938;SDS011;47897;50.322;18.892;2023-04-25T12:58:40;10.50;;;6.20;;
61938;SDS011;47897;50.322;18.892;2023-04-25T13:01:07;9.00;;;6.60;;
61938;SDS011;47897;50.322;18.892;2023-04-25T13:03:34;11.60;;;7.60;;
61938;SDS011;47897;50.322;18.892;2023-04-25T13:06:01;12.40;;;8.00;;
61938;SDS011;47897;50.322;18.892;2023-04-25T13:08:27;8.60;;;5.20;;
61938;SDS011;47897;50.322;18.892;2023-04-25T13:10:54;9.20;;;6.40;;
61938;SDS011;47897;50.322;18.892;2023-04-25T13:13:21;10.30;;;7.20;;
61938;SDS011;47897;50.322;18.892;2023-04-25T13:15:47;13.90;;;7.50;;
61938;SDS011;47897;50.322;18.892;2023-04-25T13:18:14;16.00;;;9.80;;
61938;SDS011;47897;50.322;18.892;2023-04-25T13:20:41;13.60;;;7.50;;
61938;SDS011;47897;50.322;18.892;2023-04-25T13:23:08;10.70;;;8.10;;
61938;SDS011;47897;50.322;18.892;2023-04-25T13:25:34;10.20;;;5.70;;
61938;SDS011;47897;50.322;18.892;2023-04-25T13:28:01;7.70;;;5.20;;
61938;SDS011;47897;50.322;18.892;2023-04-25T13:30:28;13.30;;;6.50;;
61938;SDS011;47897;50.322;18.892;2023-04-25T13:32:55;7.60;;;5.10;;
61938;SDS011;47897;50.322;18.892;2023-04-25T13:35:23;12.00;;;8.30;;
61938;SDS011;47897;50.322;18.892;2023-04-25T13:37:50;17.30;;;9.10;;
61938;SDS011;47897;50.322;18.892;2023-04-25T13:40:16;12.20;;;7.40;;
61938;SDS011;47897;50.322;18.892;2023-04-25T13:42:43;12.40;;;8.80;;
61938;SDS011;47897;50.322;18.892;2023-04-25T13:45:11;13.00;;;6.90;;
61938;SDS011;47897;50.322;18.892;2023-04-25T13:47:38;10.30;;;6.90;;
61938;SDS011;47897;50.322;18.892;2023-04-25T13:50:05;10.90;;;7.80;;
61938;SDS011;47897;50.322;18.892;2023-04-25T13:52:32;12.20;;;7.80;;
61938;SDS011;47897;50.322;18.892;2023-04-25T13:54:59;11.30;;;8.00;;
61938;SDS011;47897;50.322;18.892;2023-04-25T13:57:26;12.80;;;8.30;;
61938;SDS011;47897;50.322;18.892;2023-04-25T13:59:52;13.30;;;8.40;;
61938;SDS011;47897;50.322;18.892;2023-04-25T14:02:20;13.00;;;8.70;;
61938;SDS011;47897;50.322;18.892;2023-04-25T14:04:46;12.30;;;9.20;;
61938;SDS011;47897;50.322;18.892;2023-04-25T14:07:13;16.50;;;10.80;;
61938;SDS011;47897;50.322;18.892;2023-04-25T14:09:42;16.00;;;9.60;;
61938;SDS011;47897;50.322;18.892;2023-04-25T14:12:09;16.30;;;9.60;;
61938;SDS011;47897;50.322;18.892;2023-04-25T14:14:36;17.60;;;11.00;;
61938;SDS011;47897;50.322;18.892;2023-04-25T14:17:03;13.90;;;10.10;;
61938;SDS011;47897;50.322;18.892;2023-04-25T14:19:30;16.10;;;8.30;;
61938;SDS011;47897;50.322;18.892;2023-04-25T14:21:57;13.40;;;8.20;;
61938;SDS011;47897;50.322;18.892;2023-04-25T14:24:24;13.80;;;7.70;;
61938;SDS011;47897;50.322;18.892;2023-04-25T14:26:51;14.60;;;9.00;;
61938;SDS011;47897;50.322;18.892;2023-04-25T14:29:18;13.30;;;8.80;;
61938;SDS011;47897;50.322;18.892;2023-04-25T14:31:44;12.10;;;7.20;;
61938;SDS011;47897;50.322;18.892;2023-04-25T14:34:11;15.30;;;9.20;;
61938;SDS011;47897;50.322;18.892;2023-04-25T14:36:38;15.30;;;8.50;;
61938;SDS011;47897;50.322;18.892;2023-04-25T14:39:05;14.70;;;8.80;;